createdAt,value
2019-02-07T00:01:13.905Z,54.67
2019-02-07T00:04:03.626Z,55.63
2019-02-07T00:06:54.644Z,52.13
2019-02-07T00:09:44.594Z,38.83
2019-02-07T00:12:34.089Z,41.43
2019-02-07T00:15:23.800Z,44.27
2019-02-07T00:18:13.147Z,37.50
2019-02-07T00:21:02.593Z,26.57
2019-02-07T00:23:51.939Z,23.57
2019-02-07T00:26:41.485Z,22.27
2019-02-07T00:29:30.855Z,21.87
2019-02-07T00:32:21.217Z,21.13
2019-02-07T00:35:11.575Z,23.50
2019-02-07T00:38:01.767Z,20.20
2019-02-07T00:40:51.026Z,20.13
2019-02-07T00:43:40.226Z,19.47
2019-02-07T00:46:29.595Z,19.40
2019-02-07T00:49:19.912Z,20.00
2019-02-07T00:52:09.439Z,17.77
2019-02-07T00:54:59.035Z,18.53
2019-02-07T00:57:48.479Z,19.60
2019-02-07T01:00:39.223Z,23.37
2019-02-07T01:03:29.517Z,24.47
2019-02-07T01:06:19.061Z,23.23
2019-02-07T01:09:10.307Z,24.47
2019-02-07T01:11:59.349Z,24.77
2019-02-07T01:14:48.971Z,25.77
2019-02-07T01:17:38.453Z,25.10
2019-02-07T01:20:28.136Z,22.37
2019-02-07T01:23:18.010Z,25.43
2019-02-07T01:26:06.939Z,24.33
2019-02-07T01:28:56.800Z,22.97
2019-02-07T01:31:46.726Z,23.40
2019-02-07T01:34:35.770Z,21.07
2019-02-07T01:37:25.605Z,12.40
2019-02-07T01:40:18.447Z,12.37
2019-02-07T01:43:08.044Z,19.20
2019-02-07T01:45:56.992Z,19.03
2019-02-07T01:48:46.871Z,19.77
2019-02-07T01:51:36.245Z,18.93
2019-02-07T01:54:25.800Z,19.60
2019-02-07T01:57:15.485Z,16.57
2019-02-07T02:00:09.540Z,14.80
2019-02-07T02:02:58.762Z,15.43
2019-02-07T02:05:48.784Z,14.50
2019-02-07T02:08:38.648Z,15.30
2019-02-07T02:11:28.283Z,15.37
2019-02-07T02:14:18.568Z,13.63
2019-02-07T02:17:08.286Z,14.30
2019-02-07T02:19:57.431Z,15.83
2019-02-07T02:22:46.910Z,15.37
2019-02-07T02:25:35.863Z,17.47
2019-02-07T02:28:25.346Z,17.60
2019-02-07T02:31:15.106Z,18.07
2019-02-07T02:34:04.697Z,16.67
2019-02-07T02:36:54.239Z,17.83
2019-02-07T02:39:43.631Z,18.93
2019-02-07T02:42:34.745Z,16.13
2019-02-07T02:45:36.623Z,17.33
2019-02-07T02:48:16.218Z,18.40
2019-02-07T02:51:06.168Z,18.43
2019-02-07T02:53:57.193Z,17.60
2019-02-07T02:56:46.643Z,19.40
2019-02-07T02:59:36.221Z,17.83
2019-02-07T03:02:40.577Z,17.17
2019-02-07T03:05:49.507Z,16.17
2019-02-07T03:08:52.727Z,16.83
2019-02-07T03:12:04.172Z,24.73
2019-02-07T03:15:15.184Z,28.63
2019-02-07T03:18:22.186Z,28.07
2019-02-07T03:21:29.754Z,23.73
2019-02-07T03:24:39.133Z,22.03
2019-02-07T03:28:07.833Z,19.67
2019-02-07T03:31:15.749Z,19.93
2019-02-07T03:34:30.810Z,18.17
2019-02-07T03:37:35.916Z,13.13
2019-02-07T03:40:43.099Z,11.33
2019-02-07T03:43:50.432Z,10.80
2019-02-07T03:47:02.004Z,11.07
2019-02-07T03:50:05.077Z,11.63
2019-02-07T03:53:12.549Z,14.93
2019-02-07T03:56:31.856Z,18.50
2019-02-07T03:59:42.532Z,13.93
2019-02-07T04:03:03.751Z,9.57
2019-02-07T04:06:14.517Z,18.53
2019-02-07T04:09:17.723Z,16.60
2019-02-07T04:12:38.617Z,13.13
2019-02-07T04:15:58.700Z,18.67
2019-02-07T04:19:06.983Z,14.80
2019-02-07T04:22:15.462Z,15.87
2019-02-07T04:25:33.079Z,20.23
2019-02-07T04:28:45.451Z,19.10
2019-02-07T04:32:12.883Z,17.27
2019-02-07T04:35:25.368Z,16.23
2019-02-07T04:38:49.315Z,23.90
2019-02-07T04:42:20.598Z,24.53
2019-02-07T04:45:29.237Z,29.23
2019-02-07T04:48:28.544Z,50.03
2019-02-07T04:51:29.381Z,58.97
2019-02-07T04:54:52.037Z,50.77
2019-02-07T04:58:02.588Z,32.90
2019-02-07T05:01:15.746Z,38.87
2019-02-07T05:04:27.907Z,56.53
2019-02-07T05:07:38.983Z,36.63
2019-02-07T05:10:46.172Z,24.60
2019-02-07T05:13:53.007Z,27.27
2019-02-07T05:16:54.207Z,33.67
2019-02-07T05:20:02.641Z,36.73
2019-02-07T05:23:21.088Z,46.33
2019-02-07T05:26:20.746Z,42.43
2019-02-07T05:29:41.755Z,42.43
2019-02-07T05:32:54.497Z,38.60
2019-02-07T05:36:01.570Z,37.93
2019-02-07T05:39:13.153Z,30.57
2019-02-07T05:42:30.579Z,44.13
2019-02-07T05:45:39.412Z,36.90
2019-02-07T05:48:47.041Z,39.77
2019-02-07T05:52:02.190Z,38.30
2019-02-07T05:55:16.524Z,25.43
2019-02-07T05:58:24.650Z,20.37
2019-02-07T06:01:31.636Z,36.37
2019-02-07T06:04:39.018Z,44.23
2019-02-07T06:07:47.115Z,78.30
2019-02-07T06:11:11.283Z,39.83
2019-02-07T06:14:09.088Z,48.23
2019-02-07T06:17:23.385Z,55.33
2019-02-07T06:20:30.014Z,77.10
2019-02-07T06:23:46.893Z,83.93
2019-02-07T06:26:58.216Z,59.63
2019-02-07T06:29:55.389Z,72.97
2019-02-07T06:33:02.723Z,82.53
2019-02-07T06:36:04.979Z,83.60
2019-02-07T06:39:08.647Z,60.53
2019-02-07T06:42:16.295Z,60.67
2019-02-07T06:45:23.231Z,76.23
2019-02-07T06:48:34.287Z,70.77
2019-02-07T06:51:45.877Z,61.10
2019-02-07T06:54:50.833Z,21.30
2019-02-07T06:57:57.568Z,19.13
2019-02-07T07:01:08.919Z,17.33
2019-02-07T07:04:20.021Z,31.37
2019-02-07T07:07:30.632Z,29.07
2019-02-07T07:10:45.143Z,52.93
2019-02-07T07:13:53.094Z,35.23
2019-02-07T07:17:02.134Z,26.27
2019-02-07T07:20:20.392Z,28.57
2019-02-07T07:23:36.012Z,30.17
2019-02-07T07:27:02.777Z,30.90
2019-02-07T07:30:10.017Z,59.13
2019-02-07T07:33:14.316Z,52.83
2019-02-07T07:36:21.389Z,74.20
2019-02-07T07:39:39.388Z,68.70
2019-02-07T07:42:42.295Z,47.47
2019-02-07T07:45:43.237Z,66.90
2019-02-07T07:48:50.529Z,43.10
2019-02-07T07:51:58.006Z,15.93
2019-02-07T07:55:09.710Z,48.03
2019-02-07T07:58:20.275Z,76.90
2019-02-07T08:01:37.408Z,29.30
2019-02-07T08:04:54.991Z,31.87
2019-02-07T08:08:09.228Z,10.90
2019-02-07T08:11:32.642Z,7.80
2019-02-07T08:14:39.643Z,13.10
2019-02-07T08:17:47.829Z,10.23
2019-02-07T08:20:55.548Z,12.60
2019-02-07T08:24:03.568Z,11.33
2019-02-07T08:27:10.644Z,14.37
2019-02-07T08:30:16.474Z,16.07
2019-02-07T08:33:28.539Z,24.77
2019-02-07T08:36:42.320Z,13.47
2019-02-07T08:39:43.441Z,19.43
2019-02-07T08:42:50.693Z,17.50
2019-02-07T08:45:57.632Z,24.63
2019-02-07T08:49:12.443Z,12.90
2019-02-07T08:52:21.725Z,12.07
2019-02-07T08:55:48.731Z,11.17
2019-02-07T08:58:51.368Z,22.53
2019-02-07T09:02:12.686Z,23.97
2019-02-07T09:05:33.270Z,24.83
2019-02-07T09:08:32.027Z,26.37
2019-02-07T09:11:40.603Z,17.73
2019-02-07T09:14:56.769Z,19.80
2019-02-07T09:18:11.366Z,16.63
2019-02-07T09:21:11.503Z,16.03
2019-02-07T09:24:26.782Z,10.57
2019-02-07T09:27:38.419Z,10.23
2019-02-07T09:30:44.645Z,10.37
2019-02-07T09:33:53.034Z,10.60
2019-02-07T09:37:03.977Z,12.77
2019-02-07T09:40:03.632Z,12.20
2019-02-07T09:43:15.429Z,9.93
2019-02-07T09:46:32.834Z,8.67
2019-02-07T09:49:32.598Z,9.60
2019-02-07T09:52:36.963Z,12.00
2019-02-07T09:55:34.683Z,6.50
2019-02-07T09:58:41.984Z,7.50
2019-02-07T10:01:53.078Z,5.97
2019-02-07T10:04:55.707Z,9.20
2019-02-07T10:08:14.199Z,7.53
2019-02-07T10:11:32.644Z,11.33
2019-02-07T10:14:41.063Z,12.83
2019-02-07T10:17:58.612Z,8.63
2019-02-07T10:21:13.260Z,10.10
2019-02-07T10:24:33.627Z,8.70
2019-02-07T10:27:41.423Z,9.93
2019-02-07T10:30:44.550Z,8.27
2019-02-07T10:33:53.207Z,9.97
2019-02-07T10:37:07.653Z,11.60
2019-02-07T10:40:14.171Z,15.43
2019-02-07T10:43:27.556Z,10.03
2019-02-07T10:46:34.832Z,9.13
2019-02-07T10:49:44.764Z,11.23
2019-02-07T10:53:00.348Z,15.40
2019-02-07T10:56:08.984Z,9.53
2019-02-07T10:59:17.149Z,9.63
2019-02-07T11:02:29.418Z,5.70
2019-02-07T11:05:35.975Z,14.07
2019-02-07T11:08:44.704Z,17.40
2019-02-07T11:11:51.643Z,9.53
2019-02-07T11:15:03.217Z,10.77
2019-02-07T11:18:14.900Z,9.03
2019-02-07T11:21:25.487Z,10.83
2019-02-07T11:24:36.475Z,14.07
2019-02-07T11:27:34.404Z,13.63
2019-02-07T11:30:36.045Z,9.87
2019-02-07T11:33:42.170Z,7.30
2019-02-07T11:36:56.338Z,9.00
2019-02-07T11:40:12.480Z,8.10
2019-02-07T11:43:24.090Z,24.20
2019-02-07T11:46:44.441Z,10.70
2019-02-07T11:49:52.226Z,14.47
2019-02-07T11:52:54.253Z,14.07
2019-02-07T11:56:10.066Z,13.23
2019-02-07T11:59:13.544Z,8.93
2019-02-07T12:02:20.531Z,8.13
2019-02-07T12:05:35.681Z,3.23
2019-02-07T12:08:46.964Z,2.60
2019-02-07T12:11:53.329Z,5.47
2019-02-07T12:15:04.681Z,5.87
2019-02-07T12:18:25.510Z,6.03
2019-02-07T12:21:39.717Z,8.03
2019-02-07T12:24:59.948Z,11.00
2019-02-07T12:28:08.594Z,9.70
2019-02-07T12:31:15.766Z,7.27
2019-02-07T12:34:19.092Z,13.13
2019-02-07T12:37:34.399Z,15.57
2019-02-07T12:40:41.828Z,14.43
2019-02-07T12:43:56.379Z,8.10
2019-02-07T12:47:07.601Z,4.50
2019-02-07T12:50:14.224Z,5.33
2019-02-07T12:53:21.800Z,5.60
2019-02-07T12:56:28.863Z,10.63
2019-02-07T12:59:44.508Z,12.60
2019-02-07T13:03:11.088Z,12.47
2019-02-07T13:06:20.469Z,16.33
2019-02-07T13:09:40.356Z,16.77
2019-02-07T13:12:43.754Z,24.10
2019-02-07T13:16:09.943Z,16.87
2019-02-07T13:19:17.888Z,16.50
2019-02-07T13:22:10.614Z,24.57
2019-02-07T13:25:04.828Z,14.73
2019-02-07T13:27:52.977Z,11.33
2019-02-07T13:30:57.578Z,16.50
2019-02-07T13:33:46.300Z,21.60
2019-02-07T13:36:35.305Z,15.33
2019-02-07T13:39:27.735Z,44.97
2019-02-07T13:42:16.845Z,32.07
2019-02-07T13:45:18.857Z,57.33
2019-02-07T13:48:07.884Z,31.23
2019-02-07T13:50:57.094Z,33.20
2019-02-07T13:53:50.561Z,22.27
2019-02-07T13:56:55.848Z,19.93
2019-02-07T13:59:57.693Z,33.03
2019-02-07T14:03:05.726Z,30.40
2019-02-07T14:06:07.589Z,21.77
2019-02-07T14:08:48.098Z,24.47
2019-02-07T14:11:47.633Z,13.07
2019-02-07T14:14:32.392Z,33.30
2019-02-07T14:17:20.335Z,39.97
2019-02-07T14:20:13.947Z,39.77
2019-02-07T14:23:13.468Z,41.07
2019-02-07T14:26:06.229Z,34.10
2019-02-07T14:29:00.612Z,50.80
2019-02-07T14:31:49.501Z,72.90
2019-02-07T14:34:39.419Z,87.70
2019-02-07T14:37:23.945Z,47.40
2019-02-07T14:40:13.081Z,76.33
2019-02-07T14:43:22.307Z,52.10
2019-02-07T14:46:15.257Z,30.23
2019-02-07T14:48:47.148Z,21.90
2019-02-07T14:51:19.157Z,11.37
2019-02-07T14:53:51.097Z,16.50
2019-02-07T14:56:22.446Z,10.10
2019-02-07T14:58:53.735Z,9.40
2019-02-07T15:01:24.873Z,10.70
2019-02-07T15:03:56.800Z,10.20
2019-02-07T15:06:28.342Z,14.57
2019-02-07T15:08:59.461Z,9.07
2019-02-07T15:11:31.576Z,11.10
2019-02-07T15:14:02.690Z,15.33
2019-02-07T15:16:34.250Z,15.83
2019-02-07T15:19:05.265Z,19.47
2019-02-07T15:21:36.708Z,13.57
2019-02-07T15:24:09.355Z,13.07
2019-02-07T15:26:40.492Z,50.13
2019-02-07T15:29:12.293Z,20.53
2019-02-07T15:31:43.318Z,12.93
2019-02-07T15:34:14.443Z,21.80
2019-02-07T15:36:48.658Z,51.93
2019-02-07T15:39:21.822Z,55.60
2019-02-07T15:41:54.604Z,67.27
2019-02-07T15:44:25.716Z,98.57
2019-02-07T15:46:57.096Z,89.87
2019-02-07T15:49:34.570Z,77.77
2019-02-07T15:52:06.036Z,47.57
2019-02-07T15:54:38.284Z,49.20
2019-02-07T15:57:09.352Z,46.07
2019-02-07T15:59:59.351Z,37.23
2019-02-07T16:02:49.331Z,47.13
2019-02-07T16:05:21.026Z,50.83
2019-02-07T16:07:52.341Z,62.03
2019-02-07T16:10:24.463Z,60.13
2019-02-07T16:12:56.751Z,42.77
2019-02-07T16:15:28.703Z,43.73
2019-02-07T16:18:02.626Z,71.33
2019-02-07T16:20:35.579Z,36.43
2019-02-07T16:23:07.337Z,69.00
2019-02-07T16:25:42.541Z,31.53
2019-02-07T16:28:14.109Z,23.93
2019-02-07T16:30:45.780Z,32.20
2019-02-07T16:33:22.658Z,20.77
2019-02-07T16:35:54.363Z,25.00
2019-02-07T16:38:25.657Z,67.33
2019-02-07T16:40:57.019Z,107.60
2019-02-07T16:43:28.652Z,74.73
2019-02-07T16:46:00.178Z,88.37
2019-02-07T16:48:31.593Z,118.23
2019-02-07T16:51:03.000Z,125.63
2019-02-07T16:53:34.835Z,121.60
2019-02-07T16:56:08.455Z,118.27
2019-02-07T16:58:39.694Z,50.93
2019-02-07T17:01:11.303Z,46.47
2019-02-07T17:03:42.799Z,37.23
2019-02-07T17:06:14.612Z,26.10
2019-02-07T17:08:46.148Z,32.90
2019-02-07T17:11:17.227Z,36.23
2019-02-07T17:13:49.607Z,34.03
2019-02-07T17:16:25.014Z,44.73
2019-02-07T17:18:56.391Z,54.07
2019-02-07T17:21:27.647Z,54.17
2019-02-07T17:24:00.648Z,60.13
2019-02-07T17:26:31.797Z,56.83
2019-02-07T17:29:04.052Z,66.70
2019-02-07T17:31:35.263Z,71.43
2019-02-07T17:34:09.714Z,64.20
2019-02-07T17:36:56.767Z,87.37
2019-02-07T17:39:30.644Z,84.90
2019-02-07T17:42:02.253Z,83.73
2019-02-07T17:44:33.973Z,73.77
2019-02-07T17:47:05.099Z,72.37
2019-02-07T17:49:36.694Z,96.03
2019-02-07T17:52:10.109Z,95.23
2019-02-07T17:54:41.126Z,89.20
2019-02-07T17:57:12.501Z,88.43
2019-02-07T17:59:45.482Z,112.33
2019-02-07T18:02:17.509Z,122.90
2019-02-07T18:04:48.747Z,149.43
2019-02-07T18:07:20.085Z,120.07
2019-02-07T18:09:51.291Z,77.17
2019-02-07T18:12:22.884Z,64.37
2019-02-07T18:14:57.441Z,83.00
2019-02-07T18:17:35.239Z,38.43
2019-02-07T18:20:08.936Z,33.70
2019-02-07T18:25:43.142Z,23.10
2019-02-07T18:28:21.680Z,25.73
2019-02-07T18:30:53.318Z,37.43
2019-02-07T18:33:24.390Z,35.17
2019-02-07T18:35:56.047Z,33.77
2019-02-07T18:38:27.635Z,48.20
2019-02-07T18:41:00.156Z,39.43
2019-02-07T18:43:34.661Z,31.53
2019-02-07T18:46:07.897Z,63.43
2019-02-07T18:48:39.143Z,45.93
2019-02-07T18:51:14.642Z,34.13
2019-02-07T18:53:47.427Z,31.17
2019-02-07T18:56:18.510Z,104.47
2019-02-07T18:58:50.111Z,141.80
2019-02-07T19:01:21.685Z,77.63
2019-02-07T19:03:52.780Z,85.17
2019-02-07T19:06:24.108Z,59.27
2019-02-07T19:08:56.086Z,82.77
2019-02-07T19:11:27.525Z,78.57
2019-02-07T19:13:59.321Z,84.63
2019-02-07T19:16:32.370Z,87.80
2019-02-07T19:19:03.957Z,57.60
2019-02-07T19:21:35.022Z,50.13
2019-02-07T19:24:06.602Z,46.03
2019-02-07T19:26:38.176Z,32.83
2019-02-07T19:29:17.141Z,40.87
2019-02-07T19:31:49.836Z,32.30
2019-02-07T19:34:22.217Z,27.93
2019-02-07T19:36:53.855Z,31.93
2019-02-07T19:39:26.434Z,35.57
2019-02-07T19:41:58.250Z,36.20
2019-02-07T19:44:30.226Z,38.77
2019-02-07T19:47:06.813Z,46.73
2019-02-07T19:49:38.451Z,58.53
2019-02-07T19:52:10.473Z,62.97
2019-02-07T19:54:42.166Z,52.37
2019-02-07T19:57:13.757Z,53.60
2019-02-07T19:59:46.669Z,55.53
2019-02-07T20:02:18.236Z,66.63
2019-02-07T20:04:50.131Z,104.33
2019-02-07T20:07:26.224Z,90.13
2019-02-07T20:09:58.202Z,68.33
2019-02-07T20:12:29.664Z,70.33
2019-02-07T20:15:01.226Z,44.80
2019-02-07T20:17:33.496Z,37.77
2019-02-07T20:20:05.918Z,35.67
2019-02-07T20:22:37.426Z,32.53
2019-02-07T20:25:09.782Z,31.77
2019-02-07T20:27:40.893Z,33.93
2019-02-07T20:30:18.661Z,26.37
2019-02-07T20:32:50.474Z,25.23
2019-02-07T20:35:21.699Z,23.13
2019-02-07T20:37:52.842Z,26.33
2019-02-07T20:40:28.105Z,29.27
2019-02-07T20:42:59.884Z,28.03
2019-02-07T20:45:30.919Z,30.03
2019-02-07T20:48:03.066Z,30.73
2019-02-07T20:50:34.478Z,35.53
2019-02-07T20:53:05.995Z,73.07
2019-02-07T20:55:37.190Z,44.97
2019-02-07T20:58:09.822Z,40.27
2019-02-07T21:00:59.876Z,39.20
2019-02-07T21:03:48.949Z,34.77
2019-02-07T21:06:38.707Z,76.17
2019-02-07T21:09:29.037Z,41.17
2019-02-07T21:12:19.874Z,42.37
2019-02-07T21:15:18.522Z,43.37
2019-02-07T21:18:04.140Z,43.63
2019-02-07T21:20:53.906Z,43.87
2019-02-07T21:23:42.941Z,40.83
2019-02-07T21:26:37.578Z,45.83
2019-02-07T21:29:27.400Z,43.13
2019-02-07T21:32:17.111Z,42.70
2019-02-07T21:35:07.667Z,50.03
2019-02-07T21:37:57.100Z,36.37
2019-02-07T21:40:47.120Z,31.20
2019-02-07T21:43:37.247Z,29.60
2019-02-07T21:46:28.015Z,23.67
2019-02-07T21:49:18.487Z,23.73
2019-02-07T21:52:07.920Z,25.60
2019-02-07T21:55:02.363Z,25.83
2019-02-07T21:57:53.010Z,41.23
2019-02-07T22:00:44.994Z,36.93
2019-02-07T22:03:34.553Z,41.53
2019-02-07T22:06:24.011Z,79.17
2019-02-07T22:09:14.599Z,48.13
2019-02-07T22:12:04.006Z,45.77
2019-02-07T22:14:53.470Z,56.37
2019-02-07T22:17:43.678Z,50.37
2019-02-07T22:20:34.150Z,61.07
2019-02-07T22:23:24.033Z,65.57
2019-02-07T22:26:13.740Z,61.80
2019-02-07T22:29:03.849Z,60.53
2019-02-07T22:31:53.297Z,54.90
2019-02-07T22:34:42.807Z,51.27
2019-02-07T22:37:32.353Z,54.03
2019-02-07T22:40:23.047Z,57.63
2019-02-07T22:43:13.037Z,49.53
2019-02-07T22:46:02.839Z,45.17
2019-02-07T22:48:52.327Z,25.77
2019-02-07T22:51:42.218Z,20.87
2019-02-07T22:54:31.723Z,21.83
2019-02-07T22:57:21.899Z,21.03
2019-02-07T23:00:52.843Z,21.47
2019-02-07T23:03:53.881Z,28.73
2019-02-07T23:06:42.857Z,29.83
2019-02-07T23:09:33.207Z,28.40
2019-02-07T23:12:22.567Z,26.30
2019-02-07T23:15:13.113Z,25.13
2019-02-07T23:18:02.626Z,24.43
2019-02-07T23:20:52.104Z,25.80
2019-02-07T23:23:42.299Z,25.17
2019-02-07T23:26:31.767Z,27.03
2019-02-07T23:29:21.241Z,26.50
2019-02-07T23:32:11.774Z,29.53
2019-02-07T23:35:01.355Z,29.93
2019-02-07T23:37:51.302Z,31.83
2019-02-07T23:40:40.608Z,30.90
2019-02-07T23:43:30.075Z,30.60
2019-02-07T23:46:19.485Z,40.57
2019-02-07T23:49:09.044Z,35.60
2019-02-07T23:51:58.677Z,35.37
2019-02-07T23:54:48.635Z,42.40
2019-02-07T23:57:38.171Z,26.93
